sensor_id;sensor_type;location;lat;lon;timestamp;P1;durP1;ratioP1;P2;durP2;ratioP2
80637;SDS011;69991;51.760;19.528;2024-02-21T00:04:52;12.00;;;4.70;;
80637;SDS011;69991;51.760;19.528;2024-02-21T00:07:21;11.30;;;4.40;;
80637;SDS011;69991;51.760;19.528;2024-02-21T00:09:51;10.10;;;3.40;;
80637;SDS011;69991;51.760;19.528;2024-02-21T00:12:20;12.70;;;4.90;;
80637;SDS011;69991;51.760;19.528;2024-02-21T00:14:49;14.30;;;5.30;;
80637;SDS011;69991;51.760;19.528;2024-02-21T00:17:18;12.10;;;5.10;;
80637;SDS011;69991;51.760;19.528;2024-02-21T00:19:47;9.70;;;4.90;;
80637;SDS011;69991;51.760;19.528;2024-02-21T00:22:16;12.10;;;3.90;;
80637;SDS011;69991;51.760;19.528;2024-02-21T00:24:45;10.90;;;4.40;;
80637;SDS011;69991;51.760;19.528;2024-02-21T00:27:14;12.90;;;4.10;;
80637;SDS011;69991;51.760;19.528;2024-02-21T00:29:43;9.50;;;4.10;;
80637;SDS011;69991;51.760;19.528;2024-02-21T00:32:12;10.50;;;4.20;;
80637;SDS011;69991;51.760;19.528;2024-02-21T00:34:41;13.50;;;5.30;;
80637;SDS011;69991;51.760;19.528;2024-02-21T00:37:11;12.60;;;4.80;;
80637;SDS011;69991;51.760;19.528;2024-02-21T00:39:40;12.90;;;5.50;;
80637;SDS011;69991;51.760;19.528;2024-02-21T00:42:11;15.00;;;5.30;;
80637;SDS011;69991;51.760;19.528;2024-02-21T00:44:40;12.00;;;4.60;;
80637;SDS011;69991;51.760;19.528;2024-02-21T00:47:10;10.00;;;4.40;;
80637;SDS011;69991;51.760;19.528;2024-02-21T00:49:39;13.30;;;5.20;;
80637;SDS011;69991;51.760;19.528;2024-02-21T00:52:08;14.40;;;5.70;;
80637;SDS011;69991;51.760;19.528;2024-02-21T00:54:37;15.40;;;6.10;;
80637;SDS011;69991;51.760;19.528;2024-02-21T00:57:18;15.90;;;5.90;;
80637;SDS011;69991;51.760;19.528;2024-02-21T00:59:47;9.40;;;3.10;;
80637;SDS011;69991;51.760;19.528;2024-02-21T01:02:16;12.90;;;5.10;;
80637;SDS011;69991;51.760;19.528;2024-02-21T01:04:45;16.30;;;6.50;;
80637;SDS011;69991;51.760;19.528;2024-02-21T01:07:15;11.30;;;4.90;;
80637;SDS011;69991;51.760;19.528;2024-02-21T01:09:44;12.00;;;4.90;;
80637;SDS011;69991;51.760;19.528;2024-02-21T01:12:13;13.50;;;5.60;;
80637;SDS011;69991;51.760;19.528;2024-02-21T01:14:42;16.40;;;6.30;;
80637;SDS011;69991;51.760;19.528;2024-02-21T01:17:10;12.10;;;5.60;;
80637;SDS011;69991;51.760;19.528;2024-02-21T01:19:40;11.60;;;4.30;;
80637;SDS011;69991;51.760;19.528;2024-02-21T01:22:10;12.30;;;4.90;;
80637;SDS011;69991;51.760;19.528;2024-02-21T01:24:39;13.40;;;4.80;;
80637;SDS011;69991;51.760;19.528;2024-02-21T01:29:40;15.70;;;5.10;;
80637;SDS011;69991;51.760;19.528;2024-02-21T01:32:09;15.10;;;5.20;;
80637;SDS011;69991;51.760;19.528;2024-02-21T01:34:38;12.60;;;5.10;;
80637;SDS011;69991;51.760;19.528;2024-02-21T01:37:07;17.10;;;6.50;;
80637;SDS011;69991;51.760;19.528;2024-02-21T01:39:36;17.80;;;6.10;;
80637;SDS011;69991;51.760;19.528;2024-02-21T01:42:05;13.20;;;5.10;;
80637;SDS011;69991;51.760;19.528;2024-02-21T01:44:36;16.50;;;5.30;;
80637;SDS011;69991;51.760;19.528;2024-02-21T01:47:06;11.40;;;5.50;;
80637;SDS011;69991;51.760;19.528;2024-02-21T01:49:36;10.70;;;5.00;;
80637;SDS011;69991;51.760;19.528;2024-02-21T01:52:05;13.30;;;5.60;;
80637;SDS011;69991;51.760;19.528;2024-02-21T01:54:35;13.80;;;5.10;;
80637;SDS011;69991;51.760;19.528;2024-02-21T01:57:04;13.80;;;5.90;;
80637;SDS011;69991;51.760;19.528;2024-02-21T01:59:34;14.50;;;6.60;;
80637;SDS011;69991;51.760;19.528;2024-02-21T02:02:04;15.90;;;6.00;;
80637;SDS011;69991;51.760;19.528;2024-02-21T02:04:33;13.40;;;6.10;;
80637;SDS011;69991;51.760;19.528;2024-02-21T02:07:03;17.50;;;4.90;;
80637;SDS011;69991;51.760;19.528;2024-02-21T02:09:34;16.80;;;6.50;;
80637;SDS011;69991;51.760;19.528;2024-02-21T02:12:03;14.50;;;5.60;;
80637;SDS011;69991;51.760;19.528;2024-02-21T02:14:33;16.10;;;6.30;;
80637;SDS011;69991;51.760;19.528;2024-02-21T02:17:02;15.00;;;5.40;;
80637;SDS011;69991;51.760;19.528;2024-02-21T02:19:31;18.50;;;6.80;;
80637;SDS011;69991;51.760;19.528;2024-02-21T02:22:03;12.00;;;4.80;;
80637;SDS011;69991;51.760;19.528;2024-02-21T02:24:38;17.20;;;6.60;;
80637;SDS011;69991;51.760;19.528;2024-02-21T02:27:07;16.80;;;6.10;;
80637;SDS011;69991;51.760;19.528;2024-02-21T02:29:36;14.80;;;5.90;;
80637;SDS011;69991;51.760;19.528;2024-02-21T02:32:05;10.30;;;4.20;;
80637;SDS011;69991;51.760;19.528;2024-02-21T02:34:34;18.80;;;6.60;;
80637;SDS011;69991;51.760;19.528;2024-02-21T02:37:03;19.50;;;7.50;;
80637;SDS011;69991;51.760;19.528;2024-02-21T02:39:32;20.10;;;7.70;;
80637;SDS011;69991;51.760;19.528;2024-02-21T02:42:01;19.30;;;7.00;;
80637;SDS011;69991;51.760;19.528;2024-02-21T02:44:31;16.40;;;7.60;;
80637;SDS011;69991;51.760;19.528;2024-02-21T02:46:59;16.80;;;6.40;;
80637;SDS011;69991;51.760;19.528;2024-02-21T02:49:29;14.50;;;6.90;;
80637;SDS011;69991;51.760;19.528;2024-02-21T02:51:57;19.60;;;7.20;;
80637;SDS011;69991;51.760;19.528;2024-02-21T02:54:28;18.70;;;8.00;;
80637;SDS011;69991;51.760;19.528;2024-02-21T02:56:57;21.80;;;8.70;;
80637;SDS011;69991;51.760;19.528;2024-02-21T02:59:26;18.90;;;7.70;;
80637;SDS011;69991;51.760;19.528;2024-02-21T03:01:55;17.80;;;8.00;;
80637;SDS011;69991;51.760;19.528;2024-02-21T03:04:24;14.70;;;6.50;;
80637;SDS011;69991;51.760;19.528;2024-02-21T03:06:56;20.10;;;7.20;;
80637;SDS011;69991;51.760;19.528;2024-02-21T03:09:25;18.70;;;7.30;;
80637;SDS011;69991;51.760;19.528;2024-02-21T03:11:54;15.50;;;6.60;;
80637;SDS011;69991;51.760;19.528;2024-02-21T03:16:55;13.90;;;6.30;;
80637;SDS011;69991;51.760;19.528;2024-02-21T03:19:24;18.50;;;7.40;;
80637;SDS011;69991;51.760;19.528;2024-02-21T03:21:53;21.90;;;7.70;;
80637;SDS011;69991;51.760;19.528;2024-02-21T03:24:22;15.80;;;6.80;;
80637;SDS011;69991;51.760;19.528;2024-02-21T03:26:51;14.90;;;6.70;;
80637;SDS011;69991;51.760;19.528;2024-02-21T03:29:20;17.40;;;6.30;;
80637;SDS011;69991;51.760;19.528;2024-02-21T03:31:49;17.10;;;6.90;;
80637;SDS011;69991;51.760;19.528;2024-02-21T03:34:18;15.30;;;6.40;;
80637;SDS011;69991;51.760;19.528;2024-02-21T03:36:48;19.80;;;7.20;;
80637;SDS011;69991;51.760;19.528;2024-02-21T03:39:17;19.20;;;7.40;;
80637;SDS011;69991;51.760;19.528;2024-02-21T03:41:45;28.80;;;8.30;;
80637;SDS011;69991;51.760;19.528;2024-02-21T03:44:15;18.60;;;7.10;;
80637;SDS011;69991;51.760;19.528;2024-02-21T03:46:44;11.90;;;5.40;;
80637;SDS011;69991;51.760;19.528;2024-02-21T03:49:13;17.70;;;6.50;;
80637;SDS011;69991;51.760;19.528;2024-02-21T03:51:42;15.60;;;7.00;;
80637;SDS011;69991;51.760;19.528;2024-02-21T03:54:11;19.10;;;7.50;;
80637;SDS011;69991;51.760;19.528;2024-02-21T03:56:40;14.40;;;6.10;;
80637;SDS011;69991;51.760;19.528;2024-02-21T03:59:09;17.00;;;6.90;;
80637;SDS011;69991;51.760;19.528;2024-02-21T04:01:38;19.10;;;7.00;;
80637;SDS011;69991;51.760;19.528;2024-02-21T04:04:07;21.10;;;8.60;;
80637;SDS011;69991;51.760;19.528;2024-02-21T04:06:36;18.60;;;7.50;;
80637;SDS011;69991;51.760;19.528;2024-02-21T04:09:05;18.30;;;7.30;;
80637;SDS011;69991;51.760;19.528;2024-02-21T04:11:34;16.90;;;6.30;;
80637;SDS011;69991;51.760;19.528;2024-02-21T04:14:03;16.40;;;7.30;;
80637;SDS011;69991;51.760;19.528;2024-02-21T04:16:32;15.40;;;6.00;;
80637;SDS011;69991;51.760;19.528;2024-02-21T04:19:01;17.50;;;6.40;;
80637;SDS011;69991;51.760;19.528;2024-02-21T04:21:33;14.80;;;6.00;;
80637;SDS011;69991;51.760;19.528;2024-02-21T04:24:02;20.40;;;7.00;;
80637;SDS011;69991;51.760;19.528;2024-02-21T04:26:34;19.10;;;7.10;;
80637;SDS011;69991;51.760;19.528;2024-02-21T04:29:03;19.10;;;7.20;;
80637;SDS011;69991;51.760;19.528;2024-02-21T04:31:32;17.20;;;6.50;;
80637;SDS011;69991;51.760;19.528;2024-02-21T04:34:02;18.90;;;6.80;;
80637;SDS011;69991;51.760;19.528;2024-02-21T04:36:31;17.00;;;6.80;;
80637;SDS011;69991;51.760;19.528;2024-02-21T04:39:01;15.80;;;6.20;;
80637;SDS011;69991;51.760;19.528;2024-02-21T04:41:30;17.80;;;5.80;;
80637;SDS011;69991;51.760;19.528;2024-02-21T04:43:59;18.20;;;7.30;;
80637;SDS011;69991;51.760;19.528;2024-02-21T04:46:29;17.20;;;6.90;;
80637;SDS011;69991;51.760;19.528;2024-02-21T04:49:01;16.00;;;6.90;;
80637;SDS011;69991;51.760;19.528;2024-02-21T04:51:30;16.90;;;6.90;;
80637;SDS011;69991;51.760;19.528;2024-02-21T04:54:07;14.00;;;6.60;;
80637;SDS011;69991;51.760;19.528;2024-02-21T04:56:36;16.20;;;6.70;;
80637;SDS011;69991;51.760;19.528;2024-02-21T04:59:05;16.40;;;6.30;;
80637;SDS011;69991;51.760;19.528;2024-02-21T05:01:34;18.80;;;6.90;;
80637;SDS011;69991;51.760;19.528;2024-02-21T05:04:03;17.20;;;6.00;;
80637;SDS011;69991;51.760;19.528;2024-02-21T05:06:42;16.00;;;6.00;;
80637;SDS011;69991;51.760;19.528;2024-02-21T05:09:11;17.30;;;7.00;;
80637;SDS011;69991;51.760;19.528;2024-02-21T05:11:40;19.30;;;7.30;;
80637;SDS011;69991;51.760;19.528;2024-02-21T05:14:09;16.80;;;7.00;;
80637;SDS011;69991;51.760;19.528;2024-02-21T05:16:38;17.60;;;6.90;;
80637;SDS011;69991;51.760;19.528;2024-02-21T05:19:08;17.60;;;6.80;;
80637;SDS011;69991;51.760;19.528;2024-02-21T05:21:38;16.50;;;6.60;;
80637;SDS011;69991;51.760;19.528;2024-02-21T05:24:07;14.70;;;6.70;;
80637;SDS011;69991;51.760;19.528;2024-02-21T05:26:35;17.10;;;7.20;;
80637;SDS011;69991;51.760;19.528;2024-02-21T05:29:04;19.60;;;7.60;;
80637;SDS011;69991;51.760;19.528;2024-02-21T05:31:54;23.00;;;9.20;;
80637;SDS011;69991;51.760;19.528;2024-02-21T05:34:25;19.90;;;8.80;;
80637;SDS011;69991;51.760;19.528;2024-02-21T05:36:54;14.80;;;7.40;;
80637;SDS011;69991;51.760;19.528;2024-02-21T05:39:25;13.80;;;6.90;;
80637;SDS011;69991;51.760;19.528;2024-02-21T05:41:55;16.50;;;7.60;;
80637;SDS011;69991;51.760;19.528;2024-02-21T05:44:24;17.30;;;7.60;;
80637;SDS011;69991;51.760;19.528;2024-02-21T05:46:53;19.30;;;7.50;;
80637;SDS011;69991;51.760;19.528;2024-02-21T05:49:22;16.70;;;5.90;;
80637;SDS011;69991;51.760;19.528;2024-02-21T05:51:51;19.60;;;8.50;;
80637;SDS011;69991;51.760;19.528;2024-02-21T05:54:20;22.50;;;9.40;;
80637;SDS011;69991;51.760;19.528;2024-02-21T05:56:49;17.40;;;7.80;;
80637;SDS011;69991;51.760;19.528;2024-02-21T05:59:18;19.00;;;6.60;;
80637;SDS011;69991;51.760;19.528;2024-02-21T06:01:54;15.90;;;7.00;;
80637;SDS011;69991;51.760;19.528;2024-02-21T06:04:26;19.40;;;7.90;;
80637;SDS011;69991;51.760;19.528;2024-02-21T06:06:55;17.70;;;7.00;;
80637;SDS011;69991;51.760;19.528;2024-02-21T06:09:24;13.80;;;5.90;;
80637;SDS011;69991;51.760;19.528;2024-02-21T06:11:53;18.70;;;8.00;;
80637;SDS011;69991;51.760;19.528;2024-02-21T06:14:23;19.10;;;8.10;;
80637;SDS011;69991;51.760;19.528;2024-02-21T06:16:51;14.70;;;7.90;;
80637;SDS011;69991;51.760;19.528;2024-02-21T06:19:20;18.40;;;7.20;;
80637;SDS011;69991;51.760;19.528;2024-02-21T06:21:49;17.00;;;7.00;;
80637;SDS011;69991;51.760;19.528;2024-02-21T06:24:18;18.30;;;7.50;;
80637;SDS011;69991;51.760;19.528;2024-02-21T06:26:47;15.30;;;7.70;;
80637;SDS011;69991;51.760;19.528;2024-02-21T06:29:16;16.40;;;6.90;;
80637;SDS011;69991;51.760;19.528;2024-02-21T06:31:45;15.00;;;8.30;;
80637;SDS011;69991;51.760;19.528;2024-02-21T06:34:14;15.50;;;7.80;;
80637;SDS011;69991;51.760;19.528;2024-02-21T06:36:44;18.80;;;8.30;;
80637;SDS011;69991;51.760;19.528;2024-02-21T06:39:13;19.10;;;7.90;;
80637;SDS011;69991;51.760;19.528;2024-02-21T06:41:42;16.90;;;7.80;;
80637;SDS011;69991;51.760;19.528;2024-02-21T06:44:11;15.80;;;7.90;;
80637;SDS011;69991;51.760;19.528;2024-02-21T06:46:40;22.20;;;7.70;;
80637;SDS011;69991;51.760;19.528;2024-02-21T06:49:09;18.00;;;7.90;;
80637;SDS011;69991;51.760;19.528;2024-02-21T06:51:44;18.30;;;7.80;;
80637;SDS011;69991;51.760;19.528;2024-02-21T06:54:13;17.60;;;7.60;;
80637;SDS011;69991;51.760;19.528;2024-02-21T06:56:42;18.60;;;8.00;;
80637;SDS011;69991;51.760;19.528;2024-02-21T06:59:11;23.80;;;8.80;;
80637;SDS011;69991;51.760;19.528;2024-02-21T07:01:45;18.20;;;7.60;;
80637;SDS011;69991;51.760;19.528;2024-02-21T07:04:17;15.40;;;7.10;;
80637;SDS011;69991;51.760;19.528;2024-02-21T07:06:46;22.10;;;9.10;;
80637;SDS011;69991;51.760;19.528;2024-02-21T07:09:15;16.90;;;7.00;;
80637;SDS011;69991;51.760;19.528;2024-02-21T07:11:44;16.10;;;7.00;;
80637;SDS011;69991;51.760;19.528;2024-02-21T07:14:14;17.70;;;7.50;;
80637;SDS011;69991;51.760;19.528;2024-02-21T07:16:44;24.40;;;10.50;;
80637;SDS011;69991;51.760;19.528;2024-02-21T07:19:13;21.10;;;8.80;;
80637;SDS011;69991;51.760;19.528;2024-02-21T07:21:42;18.60;;;7.30;;
80637;SDS011;69991;51.760;19.528;2024-02-21T07:24:11;16.60;;;7.60;;
80637;SDS011;69991;51.760;19.528;2024-02-21T07:26:41;17.20;;;7.80;;
80637;SDS011;69991;51.760;19.528;2024-02-21T07:29:11;22.00;;;7.90;;
80637;SDS011;69991;51.760;19.528;2024-02-21T07:31:43;17.80;;;7.30;;
80637;SDS011;69991;51.760;19.528;2024-02-21T07:34:13;18.50;;;7.80;;
80637;SDS011;69991;51.760;19.528;2024-02-21T07:36:43;20.00;;;8.00;;
80637;SDS011;69991;51.760;19.528;2024-02-21T07:39:13;17.00;;;7.40;;
80637;SDS011;69991;51.760;19.528;2024-02-21T07:41:42;18.40;;;8.50;;
80637;SDS011;69991;51.760;19.528;2024-02-21T07:44:13;21.90;;;9.40;;
80637;SDS011;69991;51.760;19.528;2024-02-21T07:46:42;18.10;;;8.40;;
80637;SDS011;69991;51.760;19.528;2024-02-21T07:49:11;13.20;;;6.70;;
80637;SDS011;69991;51.760;19.528;2024-02-21T07:51:40;15.40;;;7.30;;
80637;SDS011;69991;51.760;19.528;2024-02-21T07:54:10;16.80;;;7.90;;
80637;SDS011;69991;51.760;19.528;2024-02-21T07:56:43;18.60;;;8.30;;
80637;SDS011;69991;51.760;19.528;2024-02-21T07:59:12;20.10;;;8.40;;
80637;SDS011;69991;51.760;19.528;2024-02-21T08:01:42;20.20;;;9.80;;
80637;SDS011;69991;51.760;19.528;2024-02-21T08:04:13;18.80;;;9.50;;
80637;SDS011;69991;51.760;19.528;2024-02-21T08:06:43;22.20;;;10.20;;
80637;SDS011;69991;51.760;19.528;2024-02-21T08:09:14;20.50;;;9.20;;
80637;SDS011;69991;51.760;19.528;2024-02-21T08:11:43;22.90;;;9.10;;
80637;SDS011;69991;51.760;19.528;2024-02-21T08:14:12;18.30;;;8.60;;
80637;SDS011;69991;51.760;19.528;2024-02-21T08:16:41;12.10;;;7.20;;
80637;SDS011;69991;51.760;19.528;2024-02-21T08:19:11;20.30;;;8.60;;
80637;SDS011;69991;51.760;19.528;2024-02-21T08:21:40;19.30;;;9.00;;
80637;SDS011;69991;51.760;19.528;2024-02-21T08:24:09;18.10;;;8.00;;
80637;SDS011;69991;51.760;19.528;2024-02-21T08:26:40;15.70;;;7.40;;
80637;SDS011;69991;51.760;19.528;2024-02-21T08:29:09;20.30;;;8.80;;
80637;SDS011;69991;51.760;19.528;2024-02-21T08:31:39;23.20;;;9.30;;
80637;SDS011;69991;51.760;19.528;2024-02-21T08:34:08;23.70;;;9.50;;
80637;SDS011;69991;51.760;19.528;2024-02-21T08:36:37;18.40;;;7.70;;
80637;SDS011;69991;51.760;19.528;2024-02-21T08:39:06;18.30;;;7.40;;
80637;SDS011;69991;51.760;19.528;2024-02-21T08:41:38;14.50;;;6.80;;
80637;SDS011;69991;51.760;19.528;2024-02-21T08:44:24;14.30;;;5.70;;
80637;SDS011;69991;51.760;19.528;2024-02-21T08:46:57;18.50;;;7.40;;
80637;SDS011;69991;51.760;19.528;2024-02-21T08:49:26;20.00;;;9.20;;
80637;SDS011;69991;51.760;19.528;2024-02-21T08:52:02;19.90;;;8.50;;
80637;SDS011;69991;51.760;19.528;2024-02-21T08:54:32;18.50;;;8.00;;
80637;SDS011;69991;51.760;19.528;2024-02-21T08:57:03;15.90;;;6.80;;
80637;SDS011;69991;51.760;19.528;2024-02-21T08:59:32;16.80;;;6.80;;
80637;SDS011;69991;51.760;19.528;2024-02-21T09:02:01;15.70;;;7.30;;
80637;SDS011;69991;51.760;19.528;2024-02-21T09:04:32;21.40;;;7.00;;
80637;SDS011;69991;51.760;19.528;2024-02-21T09:07:02;13.50;;;5.70;;
80637;SDS011;69991;51.760;19.528;2024-02-21T09:09:32;13.60;;;5.50;;
80637;SDS011;69991;51.760;19.528;2024-02-21T09:12:02;15.90;;;6.50;;
80637;SDS011;69991;51.760;19.528;2024-02-21T09:14:37;15.40;;;7.00;;
80637;SDS011;69991;51.760;19.528;2024-02-21T09:17:07;15.90;;;6.60;;
80637;SDS011;69991;51.760;19.528;2024-02-21T09:19:36;13.40;;;5.80;;
80637;SDS011;69991;51.760;19.528;2024-02-21T09:22:05;16.00;;;5.40;;
80637;SDS011;69991;51.760;19.528;2024-02-21T09:24:34;11.50;;;6.40;;
80637;SDS011;69991;51.760;19.528;2024-02-21T09:27:03;12.70;;;5.80;;
80637;SDS011;69991;51.760;19.528;2024-02-21T09:29:32;13.90;;;6.10;;
80637;SDS011;69991;51.760;19.528;2024-02-21T09:32:02;12.70;;;5.70;;
80637;SDS011;69991;51.760;19.528;2024-02-21T09:34:31;15.50;;;5.70;;
80637;SDS011;69991;51.760;19.528;2024-02-21T09:37:01;16.80;;;6.40;;
80637;SDS011;69991;51.760;19.528;2024-02-21T09:39:30;14.50;;;6.10;;
80637;SDS011;69991;51.760;19.528;2024-02-21T09:42:01;15.80;;;5.90;;
80637;SDS011;69991;51.760;19.528;2024-02-21T09:44:36;14.40;;;5.90;;
80637;SDS011;69991;51.760;19.528;2024-02-21T09:49:54;11.70;;;5.10;;
80637;SDS011;69991;51.760;19.528;2024-02-21T09:52:23;13.90;;;5.30;;
80637;SDS011;69991;51.760;19.528;2024-02-21T09:54:53;14.70;;;5.60;;
80637;SDS011;69991;51.760;19.528;2024-02-21T09:57:22;16.60;;;6.70;;
80637;SDS011;69991;51.760;19.528;2024-02-21T09:59:53;15.10;;;6.90;;
80637;SDS011;69991;51.760;19.528;2024-02-21T10:02:24;10.40;;;3.90;;
80637;SDS011;69991;51.760;19.528;2024-02-21T10:04:53;12.00;;;4.90;;
80637;SDS011;69991;51.760;19.528;2024-02-21T10:07:23;11.60;;;5.20;;
80637;SDS011;69991;51.760;19.528;2024-02-21T10:10:01;15.40;;;6.50;;
80637;SDS011;69991;51.760;19.528;2024-02-21T10:12:33;12.50;;;5.30;;
80637;SDS011;69991;51.760;19.528;2024-02-21T10:15:05;12.40;;;4.80;;
80637;SDS011;69991;51.760;19.528;2024-02-21T10:17:35;12.70;;;5.90;;
80637;SDS011;69991;51.760;19.528;2024-02-21T10:20:08;19.80;;;6.40;;
80637;SDS011;69991;51.760;19.528;2024-02-21T10:22:38;12.00;;;5.50;;
80637;SDS011;69991;51.760;19.528;2024-02-21T10:25:09;11.80;;;5.40;;
80637;SDS011;69991;51.760;19.528;2024-02-21T10:27:39;10.60;;;4.90;;
80637;SDS011;69991;51.760;19.528;2024-02-21T10:30:12;13.00;;;5.30;;
80637;SDS011;69991;51.760;19.528;2024-02-21T10:32:49;12.80;;;5.60;;
80637;SDS011;69991;51.760;19.528;2024-02-21T10:35:27;12.70;;;5.20;;
80637;SDS011;69991;51.760;19.528;2024-02-21T10:37:59;11.50;;;5.40;;
80637;SDS011;69991;51.760;19.528;2024-02-21T10:40:29;14.20;;;6.10;;
80637;SDS011;69991;51.760;19.528;2024-02-21T10:43:00;11.70;;;5.60;;
80637;SDS011;69991;51.760;19.528;2024-02-21T10:45:30;14.70;;;5.70;;
80637;SDS011;69991;51.760;19.528;2024-02-21T10:48:16;17.60;;;6.10;;
80637;SDS011;69991;51.760;19.528;2024-02-21T10:50:57;12.00;;;5.80;;
80637;SDS011;69991;51.760;19.528;2024-02-21T10:56:31;12.30;;;6.00;;
80637;SDS011;69991;51.760;19.528;2024-02-21T10:59:05;10.50;;;4.80;;
80637;SDS011;69991;51.760;19.528;2024-02-21T11:01:35;15.90;;;5.60;;
80637;SDS011;69991;51.760;19.528;2024-02-21T11:04:05;10.50;;;4.60;;
80637;SDS011;69991;51.760;19.528;2024-02-21T11:06:36;11.70;;;5.40;;
80637;SDS011;69991;51.760;19.528;2024-02-21T11:09:09;10.00;;;4.70;;
80637;SDS011;69991;51.760;19.528;2024-02-21T11:14:19;16.50;;;5.40;;
80637;SDS011;69991;51.760;19.528;2024-02-21T11:16:49;12.50;;;5.30;;
80637;SDS011;69991;51.760;19.528;2024-02-21T11:19:19;12.20;;;5.70;;
80637;SDS011;69991;51.760;19.528;2024-02-21T11:21:50;11.60;;;5.10;;
80637;SDS011;69991;51.760;19.528;2024-02-21T11:24:33;17.00;;;5.80;;
80637;SDS011;69991;51.760;19.528;2024-02-21T11:27:12;14.40;;;5.70;;
80637;SDS011;69991;51.760;19.528;2024-02-21T11:29:46;13.10;;;5.70;;
80637;SDS011;69991;51.760;19.528;2024-02-21T11:32:20;10.80;;;4.60;;
80637;SDS011;69991;51.760;19.528;2024-02-21T11:34:56;11.10;;;5.00;;
80637;SDS011;69991;51.760;19.528;2024-02-21T11:37:36;11.10;;;5.10;;
80637;SDS011;69991;51.760;19.528;2024-02-21T11:40:09;9.60;;;4.00;;
80637;SDS011;69991;51.760;19.528;2024-02-21T11:42:41;8.20;;;3.50;;
80637;SDS011;69991;51.760;19.528;2024-02-21T11:45:10;12.10;;;6.40;;
80637;SDS011;69991;51.760;19.528;2024-02-21T11:47:39;13.40;;;5.10;;
80637;SDS011;69991;51.760;19.528;2024-02-21T11:50:10;14.30;;;4.90;;
80637;SDS011;69991;51.760;19.528;2024-02-21T11:52:40;10.20;;;5.00;;
80637;SDS011;69991;51.760;19.528;2024-02-21T11:55:10;8.20;;;3.90;;
80637;SDS011;69991;51.760;19.528;2024-02-21T11:57:39;11.30;;;4.30;;
80637;SDS011;69991;51.760;19.528;2024-02-21T12:00:13;9.00;;;3.80;;
80637;SDS011;69991;51.760;19.528;2024-02-21T12:02:49;11.00;;;3.90;;
80637;SDS011;69991;51.760;19.528;2024-02-21T12:07:50;9.90;;;3.80;;
80637;SDS011;69991;51.760;19.528;2024-02-21T12:10:19;10.50;;;4.90;;
80637;SDS011;69991;51.760;19.528;2024-02-21T12:12:49;13.10;;;5.10;;
80637;SDS011;69991;51.760;19.528;2024-02-21T12:15:20;11.10;;;4.70;;
80637;SDS011;69991;51.760;19.528;2024-02-21T12:17:49;11.30;;;4.50;;
80637;SDS011;69991;51.760;19.528;2024-02-21T12:20:20;12.00;;;4.60;;
80637;SDS011;69991;51.760;19.528;2024-02-21T12:22:50;12.80;;;4.20;;
80637;SDS011;69991;51.760;19.528;2024-02-21T12:25:21;14.70;;;5.70;;
80637;SDS011;69991;51.760;19.528;2024-02-21T12:27:56;7.60;;;3.10;;
80637;SDS011;69991;51.760;19.528;2024-02-21T12:30:25;11.30;;;4.30;;
80637;SDS011;69991;51.760;19.528;2024-02-21T12:32:55;11.00;;;5.10;;
80637;SDS011;69991;51.760;19.528;2024-02-21T12:35:25;9.80;;;4.00;;
80637;SDS011;69991;51.760;19.528;2024-02-21T12:37:54;8.20;;;3.80;;
80637;SDS011;69991;51.760;19.528;2024-02-21T12:40:23;10.60;;;4.20;;
80637;SDS011;69991;51.760;19.528;2024-02-21T12:42:53;10.20;;;4.60;;
80637;SDS011;69991;51.760;19.528;2024-02-21T12:45:21;10.10;;;4.50;;
80637;SDS011;69991;51.760;19.528;2024-02-21T12:47:51;10.30;;;4.10;;
80637;SDS011;69991;51.760;19.528;2024-02-21T12:50:20;11.70;;;4.00;;
80637;SDS011;69991;51.760;19.528;2024-02-21T12:52:51;10.20;;;4.50;;
80637;SDS011;69991;51.760;19.528;2024-02-21T12:55:20;12.20;;;5.30;;
80637;SDS011;69991;51.760;19.528;2024-02-21T12:57:49;12.40;;;5.50;;
80637;SDS011;69991;51.760;19.528;2024-02-21T13:00:18;15.80;;;5.20;;
80637;SDS011;69991;51.760;19.528;2024-02-21T13:02:49;13.70;;;4.80;;
80637;SDS011;69991;51.760;19.528;2024-02-21T13:05:18;12.40;;;5.20;;
80637;SDS011;69991;51.760;19.528;2024-02-21T13:07:47;10.40;;;5.40;;
80637;SDS011;69991;51.760;19.528;2024-02-21T13:10:17;10.30;;;4.70;;
80637;SDS011;69991;51.760;19.528;2024-02-21T13:12:47;10.90;;;4.50;;
80637;SDS011;69991;51.760;19.528;2024-02-21T13:15:16;14.20;;;5.60;;
80637;SDS011;69991;51.760;19.528;2024-02-21T13:17:46;11.40;;;5.30;;
80637;SDS011;69991;51.760;19.528;2024-02-21T13:20:16;12.00;;;5.50;;
80637;SDS011;69991;51.760;19.528;2024-02-21T13:22:45;14.20;;;6.10;;
80637;SDS011;69991;51.760;19.528;2024-02-21T13:25:14;10.60;;;5.70;;
80637;SDS011;69991;51.760;19.528;2024-02-21T13:27:47;10.90;;;5.30;;
80637;SDS011;69991;51.760;19.528;2024-02-21T13:30:17;13.30;;;5.70;;
80637;SDS011;69991;51.760;19.528;2024-02-21T13:32:46;13.80;;;5.00;;
80637;SDS011;69991;51.760;19.528;2024-02-21T13:35:15;12.80;;;4.60;;
80637;SDS011;69991;51.760;19.528;2024-02-21T13:37:44;13.20;;;5.10;;
80637;SDS011;69991;51.760;19.528;2024-02-21T13:40:14;13.10;;;4.90;;
80637;SDS011;69991;51.760;19.528;2024-02-21T13:42:43;11.10;;;5.20;;
80637;SDS011;69991;51.760;19.528;2024-02-21T13:45:12;11.30;;;5.20;;
80637;SDS011;69991;51.760;19.528;2024-02-21T13:47:41;12.90;;;5.20;;
80637;SDS011;69991;51.760;19.528;2024-02-21T13:50:12;11.80;;;4.80;;
80637;SDS011;69991;51.760;19.528;2024-02-21T13:52:43;10.70;;;4.00;;
80637;SDS011;69991;51.760;19.528;2024-02-21T13:55:12;11.20;;;4.80;;
80637;SDS011;69991;51.760;19.528;2024-02-21T13:57:41;10.90;;;5.40;;
80637;SDS011;69991;51.760;19.528;2024-02-21T14:00:10;13.70;;;4.70;;
80637;SDS011;69991;51.760;19.528;2024-02-21T14:02:40;12.60;;;4.70;;
80637;SDS011;69991;51.760;19.528;2024-02-21T14:05:09;10.20;;;4.50;;
80637;SDS011;69991;51.760;19.528;2024-02-21T14:07:39;10.90;;;4.80;;
80637;SDS011;69991;51.760;19.528;2024-02-21T14:10:08;10.20;;;5.10;;
80637;SDS011;69991;51.760;19.528;2024-02-21T14:12:38;11.40;;;5.80;;
80637;SDS011;69991;51.760;19.528;2024-02-21T14:15:09;11.60;;;5.30;;
80637;SDS011;69991;51.760;19.528;2024-02-21T14:17:38;12.80;;;5.90;;
80637;SDS011;69991;51.760;19.528;2024-02-21T14:20:08;10.90;;;5.00;;
80637;SDS011;69991;51.760;19.528;2024-02-21T14:22:38;12.00;;;5.10;;
80637;SDS011;69991;51.760;19.528;2024-02-21T14:25:07;13.80;;;5.50;;
80637;SDS011;69991;51.760;19.528;2024-02-21T14:27:37;10.60;;;4.80;;
80637;SDS011;69991;51.760;19.528;2024-02-21T14:30:06;12.10;;;5.30;;
80637;SDS011;69991;51.760;19.528;2024-02-21T14:32:40;8.70;;;4.80;;
80637;SDS011;69991;51.760;19.528;2024-02-21T14:35:13;11.60;;;4.30;;
80637;SDS011;69991;51.760;19.528;2024-02-21T14:37:42;7.90;;;4.00;;
80637;SDS011;69991;51.760;19.528;2024-02-21T14:40:12;11.20;;;4.60;;
80637;SDS011;69991;51.760;19.528;2024-02-21T14:42:41;9.20;;;3.90;;
80637;SDS011;69991;51.760;19.528;2024-02-21T14:45:10;8.30;;;3.50;;
80637;SDS011;69991;51.760;19.528;2024-02-21T14:47:39;10.90;;;4.50;;
80637;SDS011;69991;51.760;19.528;2024-02-21T14:50:08;11.30;;;4.00;;
80637;SDS011;69991;51.760;19.528;2024-02-21T14:52:39;12.50;;;4.90;;
80637;SDS011;69991;51.760;19.528;2024-02-21T14:55:09;10.90;;;4.60;;
80637;SDS011;69991;51.760;19.528;2024-02-21T14:57:38;12.70;;;5.30;;